sensor_id;sensor_type;location;lat;lon;timestamp;P1;durP1;ratioP1;P2;durP2;ratioP2
572;SDS011;271;51.114;13.780;2022-08-19T00:00:50;22.63;;;12.07;;
572;SDS011;271;51.114;13.780;2022-08-19T00:03:17;23.80;;;11.30;;
572;SDS011;271;51.114;13.780;2022-08-19T00:05:44;22.70;;;10.90;;
572;SDS011;271;51.114;13.780;2022-08-19T00:08:10;23.10;;;11.97;;
572;SDS011;271;51.114;13.780;2022-08-19T00:10:37;23.57;;;12.10;;
572;SDS011;271;51.114;13.780;2022-08-19T00:13:05;25.83;;;13.23;;
572;SDS011;271;51.114;13.780;2022-08-19T00:15:32;23.23;;;12.73;;
572;SDS011;271;51.114;13.780;2022-08-19T00:17:59;23.03;;;12.60;;
572;SDS011;271;51.114;13.780;2022-08-19T00:20:26;26.73;;;12.00;;
572;SDS011;271;51.114;13.780;2022-08-19T00:22:53;23.37;;;11.57;;
572;SDS011;271;51.114;13.780;2022-08-19T00:25:20;23.27;;;12.30;;
572;SDS011;271;51.114;13.780;2022-08-19T00:27:48;23.70;;;12.20;;
572;SDS011;271;51.114;13.780;2022-08-19T00:30:16;22.50;;;12.60;;
572;SDS011;271;51.114;13.780;2022-08-19T00:32:43;22.67;;;12.60;;
572;SDS011;271;51.114;13.780;2022-08-19T00:35:10;23.13;;;12.87;;
572;SDS011;271;51.114;13.780;2022-08-19T00:37:36;23.57;;;12.90;;
572;SDS011;271;51.114;13.780;2022-08-19T00:40:06;24.47;;;12.43;;
572;SDS011;271;51.114;13.780;2022-08-19T00:42:34;24.47;;;13.40;;
572;SDS011;271;51.114;13.780;2022-08-19T00:45:00;24.20;;;14.50;;
572;SDS011;271;51.114;13.780;2022-08-19T00:47:29;24.93;;;12.57;;
572;SDS011;271;51.114;13.780;2022-08-19T00:49:57;24.53;;;13.00;;
572;SDS011;271;51.114;13.780;2022-08-19T00:52:26;23.10;;;12.77;;
572;SDS011;271;51.114;13.780;2022-08-19T00:54:55;24.17;;;13.90;;
572;SDS011;271;51.114;13.780;2022-08-19T00:57:25;26.00;;;13.80;;
572;SDS011;271;51.114;13.780;2022-08-19T00:59:55;24.73;;;13.53;;
572;SDS011;271;51.114;13.780;2022-08-19T01:02:24;24.80;;;13.87;;
572;SDS011;271;51.114;13.780;2022-08-19T01:04:54;26.53;;;14.60;;
572;SDS011;271;51.114;13.780;2022-08-19T01:07:21;23.67;;;13.50;;
572;SDS011;271;51.114;13.780;2022-08-19T01:09:48;26.47;;;14.60;;
572;SDS011;271;51.114;13.780;2022-08-19T01:12:15;28.07;;;14.37;;
572;SDS011;271;51.114;13.780;2022-08-19T01:14:43;25.57;;;14.20;;
572;SDS011;271;51.114;13.780;2022-08-19T01:17:11;25.80;;;14.57;;
572;SDS011;271;51.114;13.780;2022-08-19T01:19:41;24.50;;;14.23;;
572;SDS011;271;51.114;13.780;2022-08-19T01:22:11;26.33;;;14.43;;
572;SDS011;271;51.114;13.780;2022-08-19T01:24:42;26.87;;;15.53;;
572;SDS011;271;51.114;13.780;2022-08-19T01:27:09;27.90;;;15.73;;
572;SDS011;271;51.114;13.780;2022-08-19T01:29:37;25.20;;;15.13;;
572;SDS011;271;51.114;13.780;2022-08-19T01:32:05;25.17;;;14.30;;
572;SDS011;271;51.114;13.780;2022-08-19T01:34:33;25.83;;;14.67;;
572;SDS011;271;51.114;13.780;2022-08-19T01:37:00;25.93;;;14.97;;
572;SDS011;271;51.114;13.780;2022-08-19T01:39:33;26.80;;;15.77;;
572;SDS011;271;51.114;13.780;2022-08-19T01:42:02;25.20;;;14.07;;
572;SDS011;271;51.114;13.780;2022-08-19T01:44:29;27.67;;;16.50;;
572;SDS011;271;51.114;13.780;2022-08-19T01:46:56;27.47;;;16.67;;
572;SDS011;271;51.114;13.780;2022-08-19T01:49:23;26.57;;;15.30;;
572;SDS011;271;51.114;13.780;2022-08-19T01:51:51;26.87;;;15.77;;
572;SDS011;271;51.114;13.780;2022-08-19T01:54:20;27.40;;;15.87;;
572;SDS011;271;51.114;13.780;2022-08-19T01:56:48;27.47;;;17.20;;
572;SDS011;271;51.114;13.780;2022-08-19T01:59:19;27.03;;;15.73;;
572;SDS011;271;51.114;13.780;2022-08-19T02:01:49;29.30;;;17.27;;
572;SDS011;271;51.114;13.780;2022-08-19T02:04:15;25.80;;;15.37;;
572;SDS011;271;51.114;13.780;2022-08-19T02:06:42;27.20;;;15.40;;
572;SDS011;271;51.114;13.780;2022-08-19T02:09:09;26.80;;;16.20;;
572;SDS011;271;51.114;13.780;2022-08-19T02:11:36;26.27;;;14.53;;
572;SDS011;271;51.114;13.780;2022-08-19T02:14:05;28.03;;;15.57;;
572;SDS011;271;51.114;13.780;2022-08-19T02:16:35;26.70;;;16.00;;
572;SDS011;271;51.114;13.780;2022-08-19T02:19:03;27.27;;;17.37;;
572;SDS011;271;51.114;13.780;2022-08-19T02:21:31;27.67;;;17.33;;
572;SDS011;271;51.114;13.780;2022-08-19T02:23:58;29.50;;;16.53;;
572;SDS011;271;51.114;13.780;2022-08-19T02:26:25;27.10;;;15.90;;
572;SDS011;271;51.114;13.780;2022-08-19T02:28:53;28.63;;;16.67;;
572;SDS011;271;51.114;13.780;2022-08-19T02:31:21;26.67;;;15.50;;
572;SDS011;271;51.114;13.780;2022-08-19T02:33:50;28.20;;;17.37;;
572;SDS011;271;51.114;13.780;2022-08-19T02:36:18;27.47;;;16.63;;
572;SDS011;271;51.114;13.780;2022-08-19T02:38:45;26.57;;;16.20;;
572;SDS011;271;51.114;13.780;2022-08-19T02:41:14;27.10;;;16.50;;
572;SDS011;271;51.114;13.780;2022-08-19T02:43:42;26.90;;;16.13;;
572;SDS011;271;51.114;13.780;2022-08-19T02:46:13;27.63;;;16.50;;
572;SDS011;271;51.114;13.780;2022-08-19T02:48:43;29.60;;;17.07;;
572;SDS011;271;51.114;13.780;2022-08-19T02:51:16;27.27;;;16.93;;
572;SDS011;271;51.114;13.780;2022-08-19T02:53:44;28.37;;;17.40;;
572;SDS011;271;51.114;13.780;2022-08-19T02:56:11;27.03;;;17.07;;
572;SDS011;271;51.114;13.780;2022-08-19T02:58:37;27.03;;;16.00;;
572;SDS011;271;51.114;13.780;2022-08-19T03:01:05;27.30;;;17.30;;
572;SDS011;271;51.114;13.780;2022-08-19T03:03:31;27.00;;;15.73;;
572;SDS011;271;51.114;13.780;2022-08-19T03:06:02;27.70;;;15.77;;
572;SDS011;271;51.114;13.780;2022-08-19T03:08:35;27.80;;;17.33;;
572;SDS011;271;51.114;13.780;2022-08-19T03:11:03;28.50;;;17.83;;
572;SDS011;271;51.114;13.780;2022-08-19T03:13:31;26.67;;;15.50;;
572;SDS011;271;51.114;13.780;2022-08-19T03:15:58;27.90;;;15.93;;
572;SDS011;271;51.114;13.780;2022-08-19T03:18:24;28.10;;;17.37;;
572;SDS011;271;51.114;13.780;2022-08-19T03:20:51;28.70;;;16.60;;
572;SDS011;271;51.114;13.780;2022-08-19T03:23:19;27.70;;;17.03;;
572;SDS011;271;51.114;13.780;2022-08-19T03:25:49;30.07;;;18.73;;
572;SDS011;271;51.114;13.780;2022-08-19T03:28:17;28.77;;;17.60;;
572;SDS011;271;51.114;13.780;2022-08-19T03:30:54;29.10;;;17.90;;
572;SDS011;271;51.114;13.780;2022-08-19T03:33:22;29.27;;;17.53;;
572;SDS011;271;51.114;13.780;2022-08-19T03:35:58;27.50;;;16.80;;
572;SDS011;271;51.114;13.780;2022-08-19T03:38:32;30.60;;;19.23;;
572;SDS011;271;51.114;13.780;2022-08-19T03:41:03;30.90;;;20.10;;
572;SDS011;271;51.114;13.780;2022-08-19T03:43:33;28.57;;;18.30;;
572;SDS011;271;51.114;13.780;2022-08-19T03:46:01;29.30;;;19.30;;
572;SDS011;271;51.114;13.780;2022-08-19T03:48:29;28.70;;;18.60;;
572;SDS011;271;51.114;13.780;2022-08-19T03:50:57;30.27;;;18.93;;
572;SDS011;271;51.114;13.780;2022-08-19T03:53:25;28.20;;;18.17;;
572;SDS011;271;51.114;13.780;2022-08-19T03:55:53;32.10;;;20.27;;
572;SDS011;271;51.114;13.780;2022-08-19T03:58:22;32.27;;;20.00;;
572;SDS011;271;51.114;13.780;2022-08-19T04:00:49;29.30;;;18.87;;
572;SDS011;271;51.114;13.780;2022-08-19T04:03:15;31.73;;;21.30;;
572;SDS011;271;51.114;13.780;2022-08-19T04:05:43;29.77;;;18.83;;
572;SDS011;271;51.114;13.780;2022-08-19T04:08:11;30.83;;;19.60;;
572;SDS011;271;51.114;13.780;2022-08-19T04:10:38;29.17;;;18.70;;
572;SDS011;271;51.114;13.780;2022-08-19T04:13:05;29.43;;;18.50;;
572;SDS011;271;51.114;13.780;2022-08-19T04:15:38;28.77;;;18.97;;
572;SDS011;271;51.114;13.780;2022-08-19T04:18:06;31.40;;;17.43;;
572;SDS011;271;51.114;13.780;2022-08-19T04:20:38;33.57;;;19.90;;
572;SDS011;271;51.114;13.780;2022-08-19T04:23:06;30.77;;;18.87;;
572;SDS011;271;51.114;13.780;2022-08-19T04:25:36;27.83;;;17.83;;
572;SDS011;271;51.114;13.780;2022-08-19T04:28:04;30.20;;;19.50;;
572;SDS011;271;51.114;13.780;2022-08-19T04:30:37;28.43;;;17.47;;
572;SDS011;271;51.114;13.780;2022-08-19T04:33:05;28.17;;;16.70;;
572;SDS011;271;51.114;13.780;2022-08-19T04:35:34;30.47;;;19.80;;
572;SDS011;271;51.114;13.780;2022-08-19T04:38:03;33.20;;;21.07;;
572;SDS011;271;51.114;13.780;2022-08-19T04:40:30;28.90;;;18.07;;
572;SDS011;271;51.114;13.780;2022-08-19T04:43:14;29.50;;;18.83;;
572;SDS011;271;51.114;13.780;2022-08-19T04:45:43;28.87;;;19.40;;
572;SDS011;271;51.114;13.780;2022-08-19T04:48:10;29.37;;;18.07;;
572;SDS011;271;51.114;13.780;2022-08-19T04:50:39;29.47;;;17.57;;
572;SDS011;271;51.114;13.780;2022-08-19T04:53:07;29.97;;;19.00;;
572;SDS011;271;51.114;13.780;2022-08-19T04:55:37;31.13;;;19.63;;
572;SDS011;271;51.114;13.780;2022-08-19T04:58:05;30.10;;;19.97;;
572;SDS011;271;51.114;13.780;2022-08-19T05:00:32;30.47;;;19.00;;
572;SDS011;271;51.114;13.780;2022-08-19T05:03:01;28.70;;;18.73;;
572;SDS011;271;51.114;13.780;2022-08-19T05:05:28;30.50;;;17.90;;
572;SDS011;271;51.114;13.780;2022-08-19T05:07:56;28.13;;;17.17;;
572;SDS011;271;51.114;13.780;2022-08-19T05:10:22;28.17;;;17.03;;
572;SDS011;271;51.114;13.780;2022-08-19T05:12:49;28.37;;;18.50;;
572;SDS011;271;51.114;13.780;2022-08-19T05:15:16;30.83;;;18.93;;
572;SDS011;271;51.114;13.780;2022-08-19T05:17:44;29.83;;;17.33;;
572;SDS011;271;51.114;13.780;2022-08-19T05:20:32;27.37;;;17.37;;
572;SDS011;271;51.114;13.780;2022-08-19T05:23:16;30.70;;;18.87;;
572;SDS011;271;51.114;13.780;2022-08-19T05:25:43;28.23;;;17.93;;
572;SDS011;271;51.114;13.780;2022-08-19T05:28:11;28.17;;;17.60;;
572;SDS011;271;51.114;13.780;2022-08-19T05:30:40;29.23;;;17.77;;
572;SDS011;271;51.114;13.780;2022-08-19T05:33:08;28.90;;;18.63;;
572;SDS011;271;51.114;13.780;2022-08-19T05:35:38;29.37;;;18.07;;
572;SDS011;271;51.114;13.780;2022-08-19T05:38:06;31.47;;;18.30;;
572;SDS011;271;51.114;13.780;2022-08-19T05:40:34;29.30;;;18.20;;
572;SDS011;271;51.114;13.780;2022-08-19T05:43:02;28.50;;;17.37;;
572;SDS011;271;51.114;13.780;2022-08-19T05:45:30;30.30;;;19.57;;
572;SDS011;271;51.114;13.780;2022-08-19T05:47:57;31.63;;;19.40;;
572;SDS011;271;51.114;13.780;2022-08-19T05:50:24;30.03;;;18.23;;
572;SDS011;271;51.114;13.780;2022-08-19T05:52:52;29.70;;;18.37;;
572;SDS011;271;51.114;13.780;2022-08-19T05:55:19;29.60;;;19.03;;
572;SDS011;271;51.114;13.780;2022-08-19T05:57:47;29.70;;;18.30;;
572;SDS011;271;51.114;13.780;2022-08-19T06:00:15;28.77;;;17.20;;
572;SDS011;271;51.114;13.780;2022-08-19T06:02:42;29.33;;;18.07;;
572;SDS011;271;51.114;13.780;2022-08-19T06:05:09;29.20;;;17.33;;
572;SDS011;271;51.114;13.780;2022-08-19T06:07:36;28.80;;;18.10;;
572;SDS011;271;51.114;13.780;2022-08-19T06:10:07;29.27;;;18.00;;
572;SDS011;271;51.114;13.780;2022-08-19T06:12:35;30.17;;;19.30;;
572;SDS011;271;51.114;13.780;2022-08-19T06:15:03;27.70;;;17.30;;
572;SDS011;271;51.114;13.780;2022-08-19T06:17:32;29.03;;;17.80;;
572;SDS011;271;51.114;13.780;2022-08-19T06:20:00;30.37;;;17.90;;
572;SDS011;271;51.114;13.780;2022-08-19T06:22:27;29.40;;;16.33;;
572;SDS011;271;51.114;13.780;2022-08-19T06:24:54;26.60;;;16.17;;
572;SDS011;271;51.114;13.780;2022-08-19T06:27:22;26.87;;;14.43;;
572;SDS011;271;51.114;13.780;2022-08-19T06:29:49;26.30;;;14.60;;
572;SDS011;271;51.114;13.780;2022-08-19T06:32:17;27.10;;;15.27;;
572;SDS011;271;51.114;13.780;2022-08-19T06:34:44;26.53;;;13.77;;
572;SDS011;271;51.114;13.780;2022-08-19T06:37:12;26.57;;;14.33;;
572;SDS011;271;51.114;13.780;2022-08-19T06:39:40;25.00;;;12.83;;
572;SDS011;271;51.114;13.780;2022-08-19T06:42:08;26.60;;;13.37;;
572;SDS011;271;51.114;13.780;2022-08-19T06:44:40;27.27;;;13.83;;
572;SDS011;271;51.114;13.780;2022-08-19T06:47:08;25.57;;;13.13;;
572;SDS011;271;51.114;13.780;2022-08-19T06:49:37;27.03;;;13.10;;
572;SDS011;271;51.114;13.780;2022-08-19T06:52:04;25.20;;;14.00;;
572;SDS011;271;51.114;13.780;2022-08-19T06:54:32;25.50;;;13.73;;
572;SDS011;271;51.114;13.780;2022-08-19T06:56:58;27.70;;;13.53;;
572;SDS011;271;51.114;13.780;2022-08-19T06:59:27;24.87;;;12.50;;
572;SDS011;271;51.114;13.780;2022-08-19T07:01:59;27.67;;;13.57;;
572;SDS011;271;51.114;13.780;2022-08-19T07:04:27;31.50;;;14.93;;
572;SDS011;271;51.114;13.780;2022-08-19T07:06:57;28.67;;;14.63;;
572;SDS011;271;51.114;13.780;2022-08-19T07:09:26;32.17;;;16.50;;
572;SDS011;271;51.114;13.780;2022-08-19T07:11:53;28.07;;;15.53;;
572;SDS011;271;51.114;13.780;2022-08-19T07:14:22;27.50;;;15.17;;
572;SDS011;271;51.114;13.780;2022-08-19T07:16:51;27.53;;;15.27;;
572;SDS011;271;51.114;13.780;2022-08-19T07:19:21;28.63;;;16.30;;
572;SDS011;271;51.114;13.780;2022-08-19T07:21:51;28.57;;;16.60;;
572;SDS011;271;51.114;13.780;2022-08-19T07:24:18;30.27;;;17.70;;
572;SDS011;271;51.114;13.780;2022-08-19T07:26:48;28.73;;;16.80;;
572;SDS011;271;51.114;13.780;2022-08-19T07:29:17;32.70;;;18.93;;
572;SDS011;271;51.114;13.780;2022-08-19T07:31:47;32.03;;;19.23;;
572;SDS011;271;51.114;13.780;2022-08-19T07:34:15;32.43;;;18.90;;
572;SDS011;271;51.114;13.780;2022-08-19T07:36:44;31.50;;;18.37;;
572;SDS011;271;51.114;13.780;2022-08-19T07:39:12;31.83;;;18.70;;
572;SDS011;271;51.114;13.780;2022-08-19T07:41:40;33.83;;;18.50;;
572;SDS011;271;51.114;13.780;2022-08-19T07:44:07;31.73;;;18.47;;
572;SDS011;271;51.114;13.780;2022-08-19T07:46:36;30.10;;;16.60;;
572;SDS011;271;51.114;13.780;2022-08-19T07:49:06;32.23;;;19.50;;
572;SDS011;271;51.114;13.780;2022-08-19T07:51:45;30.93;;;17.83;;
572;SDS011;271;51.114;13.780;2022-08-19T07:54:13;31.90;;;19.70;;
572;SDS011;271;51.114;13.780;2022-08-19T07:56:40;34.43;;;19.47;;
572;SDS011;271;51.114;13.780;2022-08-19T07:59:07;32.00;;;18.90;;
572;SDS011;271;51.114;13.780;2022-08-19T08:01:35;31.97;;;18.37;;
572;SDS011;271;51.114;13.780;2022-08-19T08:04:02;31.30;;;19.23;;
572;SDS011;271;51.114;13.780;2022-08-19T08:06:48;31.83;;;17.90;;
572;SDS011;271;51.114;13.780;2022-08-19T08:09:36;29.80;;;16.60;;
572;SDS011;271;51.114;13.780;2022-08-19T08:12:05;30.53;;;17.07;;
572;SDS011;271;51.114;13.780;2022-08-19T08:14:54;31.30;;;17.60;;
572;SDS011;271;51.114;13.780;2022-08-19T08:17:25;28.40;;;16.50;;
572;SDS011;271;51.114;13.780;2022-08-19T08:19:53;30.97;;;16.93;;
572;SDS011;271;51.114;13.780;2022-08-19T08:22:31;28.97;;;17.70;;
572;SDS011;271;51.114;13.780;2022-08-19T08:25:17;28.00;;;15.77;;
572;SDS011;271;51.114;13.780;2022-08-19T08:27:46;29.80;;;16.87;;
572;SDS011;271;51.114;13.780;2022-08-19T08:30:16;30.47;;;17.73;;
572;SDS011;271;51.114;13.780;2022-08-19T08:32:44;30.20;;;17.70;;
572;SDS011;271;51.114;13.780;2022-08-19T08:35:13;28.20;;;15.37;;
572;SDS011;271;51.114;13.780;2022-08-19T08:37:43;30.60;;;15.17;;
572;SDS011;271;51.114;13.780;2022-08-19T08:40:15;30.67;;;18.00;;
572;SDS011;271;51.114;13.780;2022-08-19T08:43:01;27.20;;;15.00;;
572;SDS011;271;51.114;13.780;2022-08-19T08:45:32;30.57;;;17.77;;
572;SDS011;271;51.114;13.780;2022-08-19T08:48:13;29.13;;;16.67;;
572;SDS011;271;51.114;13.780;2022-08-19T08:50:49;30.60;;;17.17;;
572;SDS011;271;51.114;13.780;2022-08-19T08:53:21;30.03;;;18.43;;
572;SDS011;271;51.114;13.780;2022-08-19T08:55:49;31.03;;;17.93;;
572;SDS011;271;51.114;13.780;2022-08-19T08:58:36;29.67;;;17.30;;
572;SDS011;271;51.114;13.780;2022-08-19T09:01:08;29.47;;;18.13;;
572;SDS011;271;51.114;13.780;2022-08-19T09:03:36;28.53;;;17.10;;
572;SDS011;271;51.114;13.780;2022-08-19T09:06:06;29.17;;;17.47;;
572;SDS011;271;51.114;13.780;2022-08-19T09:08:47;28.30;;;16.50;;
572;SDS011;271;51.114;13.780;2022-08-19T09:11:31;32.43;;;18.93;;
572;SDS011;271;51.114;13.780;2022-08-19T09:14:23;30.33;;;18.30;;
572;SDS011;271;51.114;13.780;2022-08-19T09:17:06;29.33;;;16.30;;
572;SDS011;271;51.114;13.780;2022-08-19T09:19:34;29.97;;;17.17;;
572;SDS011;271;51.114;13.780;2022-08-19T09:22:01;29.00;;;17.57;;
572;SDS011;271;51.114;13.780;2022-08-19T09:24:43;29.37;;;17.10;;
572;SDS011;271;51.114;13.780;2022-08-19T09:27:10;30.00;;;16.70;;
572;SDS011;271;51.114;13.780;2022-08-19T09:29:37;28.07;;;16.27;;
572;SDS011;271;51.114;13.780;2022-08-19T09:32:04;29.10;;;16.23;;
572;SDS011;271;51.114;13.780;2022-08-19T09:34:37;27.03;;;14.83;;
572;SDS011;271;51.114;13.780;2022-08-19T09:37:04;27.00;;;14.43;;
572;SDS011;271;51.114;13.780;2022-08-19T09:39:31;27.50;;;15.57;;
572;SDS011;271;51.114;13.780;2022-08-19T09:41:59;27.93;;;15.80;;
572;SDS011;271;51.114;13.780;2022-08-19T09:44:28;28.30;;;14.30;;
572;SDS011;271;51.114;13.780;2022-08-19T09:47:01;27.10;;;14.73;;
572;SDS011;271;51.114;13.780;2022-08-19T09:49:28;26.87;;;14.77;;
572;SDS011;271;51.114;13.780;2022-08-19T09:51:56;25.97;;;13.67;;
572;SDS011;271;51.114;13.780;2022-08-19T09:54:23;25.50;;;13.20;;
572;SDS011;271;51.114;13.780;2022-08-19T09:56:50;26.00;;;12.90;;
572;SDS011;271;51.114;13.780;2022-08-19T09:59:21;26.33;;;13.13;;
572;SDS011;271;51.114;13.780;2022-08-19T10:01:48;26.07;;;13.50;;
572;SDS011;271;51.114;13.780;2022-08-19T10:04:16;25.10;;;13.13;;
572;SDS011;271;51.114;13.780;2022-08-19T10:06:44;24.70;;;12.07;;
572;SDS011;271;51.114;13.780;2022-08-19T10:09:13;24.27;;;11.47;;
572;SDS011;271;51.114;13.780;2022-08-19T10:11:42;25.73;;;12.23;;
572;SDS011;271;51.114;13.780;2022-08-19T10:14:13;25.63;;;13.57;;
572;SDS011;271;51.114;13.780;2022-08-19T10:16:41;24.30;;;12.80;;
572;SDS011;271;51.114;13.780;2022-08-19T10:19:08;23.23;;;11.60;;
572;SDS011;271;51.114;13.780;2022-08-19T10:21:35;24.40;;;12.60;;
572;SDS011;271;51.114;13.780;2022-08-19T10:24:06;23.50;;;12.50;;
572;SDS011;271;51.114;13.780;2022-08-19T10:26:38;25.30;;;13.57;;
572;SDS011;271;51.114;13.780;2022-08-19T10:29:07;23.23;;;11.87;;
572;SDS011;271;51.114;13.780;2022-08-19T10:31:36;23.80;;;12.63;;
572;SDS011;271;51.114;13.780;2022-08-19T10:34:06;23.67;;;10.80;;
572;SDS011;271;51.114;13.780;2022-08-19T10:36:35;23.80;;;11.93;;
572;SDS011;271;51.114;13.780;2022-08-19T10:39:04;24.77;;;12.60;;
572;SDS011;271;51.114;13.780;2022-08-19T10:41:36;24.40;;;11.87;;
572;SDS011;271;51.114;13.780;2022-08-19T10:44:06;23.63;;;12.53;;
572;SDS011;271;51.114;13.780;2022-08-19T10:46:38;23.03;;;11.10;;
572;SDS011;271;51.114;13.780;2022-08-19T10:49:08;24.00;;;11.70;;
572;SDS011;271;51.114;13.780;2022-08-19T10:51:37;22.90;;;11.53;;
572;SDS011;271;51.114;13.780;2022-08-19T10:54:25;23.30;;;11.13;;
572;SDS011;271;51.114;13.780;2022-08-19T10:57:08;22.40;;;11.67;;
572;SDS011;271;51.114;13.780;2022-08-19T10:59:35;22.60;;;11.40;;
572;SDS011;271;51.114;13.780;2022-08-19T11:02:04;21.47;;;10.50;;
572;SDS011;271;51.114;13.780;2022-08-19T11:04:42;23.67;;;12.40;;
572;SDS011;271;51.114;13.780;2022-08-19T11:07:09;22.80;;;11.63;;
572;SDS011;271;51.114;13.780;2022-08-19T11:09:37;22.87;;;12.23;;
572;SDS011;271;51.114;13.780;2022-08-19T11:12:06;23.70;;;11.87;;
572;SDS011;271;51.114;13.780;2022-08-19T11:14:34;21.53;;;10.60;;
572;SDS011;271;51.114;13.780;2022-08-19T11:17:07;23.70;;;12.33;;
572;SDS011;271;51.114;13.780;2022-08-19T11:19:36;22.53;;;11.23;;
572;SDS011;271;51.114;13.780;2022-08-19T11:22:07;24.80;;;13.20;;
572;SDS011;271;51.114;13.780;2022-08-19T11:24:35;23.83;;;12.03;;
572;SDS011;271;51.114;13.780;2022-08-19T11:27:04;23.50;;;11.90;;
572;SDS011;271;51.114;13.780;2022-08-19T11:29:38;24.80;;;12.73;;
572;SDS011;271;51.114;13.780;2022-08-19T11:32:05;23.70;;;13.00;;
572;SDS011;271;51.114;13.780;2022-08-19T11:34:34;24.30;;;13.63;;
572;SDS011;271;51.114;13.780;2022-08-19T11:37:02;24.30;;;13.60;;
572;SDS011;271;51.114;13.780;2022-08-19T11:39:32;23.30;;;12.27;;
572;SDS011;271;51.114;13.780;2022-08-19T11:42:00;23.37;;;12.30;;
572;SDS011;271;51.114;13.780;2022-08-19T11:44:27;24.80;;;13.13;;
572;SDS011;271;51.114;13.780;2022-08-19T11:46:55;24.33;;;12.73;;
572;SDS011;271;51.114;13.780;2022-08-19T11:49:22;31.10;;;15.30;;
572;SDS011;271;51.114;13.780;2022-08-19T11:51:49;22.70;;;12.43;;
572;SDS011;271;51.114;13.780;2022-08-19T11:54:16;24.73;;;13.73;;
572;SDS011;271;51.114;13.780;2022-08-19T11:56:44;24.20;;;13.30;;
572;SDS011;271;51.114;13.780;2022-08-19T11:59:13;25.13;;;14.07;;
572;SDS011;271;51.114;13.780;2022-08-19T12:01:40;23.60;;;12.70;;
572;SDS011;271;51.114;13.780;2022-08-19T12:04:08;25.67;;;14.30;;
572;SDS011;271;51.114;13.780;2022-08-19T12:06:42;25.63;;;13.67;;
572;SDS011;271;51.114;13.780;2022-08-19T12:09:09;25.90;;;14.53;;
572;SDS011;271;51.114;13.780;2022-08-19T12:11:37;27.87;;;16.50;;
572;SDS011;271;51.114;13.780;2022-08-19T12:14:06;26.00;;;13.93;;
572;SDS011;271;51.114;13.780;2022-08-19T12:16:35;26.93;;;16.00;;
572;SDS011;271;51.114;13.780;2022-08-19T12:19:04;29.27;;;17.17;;
572;SDS011;271;51.114;13.780;2022-08-19T12:21:32;29.73;;;18.30;;
572;SDS011;271;51.114;13.780;2022-08-19T12:24:02;31.77;;;20.00;;
572;SDS011;271;51.114;13.780;2022-08-19T12:26:32;35.73;;;23.27;;
572;SDS011;271;51.114;13.780;2022-08-19T12:29:00;33.73;;;21.60;;
572;SDS011;271;51.114;13.780;2022-08-19T12:31:28;38.40;;;23.07;;
572;SDS011;271;51.114;13.780;2022-08-19T12:33:56;36.30;;;22.33;;
572;SDS011;271;51.114;13.780;2022-08-19T12:36:24;34.27;;;21.87;;
572;SDS011;271;51.114;13.780;2022-08-19T12:38:51;37.37;;;21.97;;
572;SDS011;271;51.114;13.780;2022-08-19T12:41:18;33.50;;;21.30;;
572;SDS011;271;51.114;13.780;2022-08-19T12:43:50;34.53;;;21.27;;
572;SDS011;271;51.114;13.780;2022-08-19T12:46:18;33.13;;;19.40;;
572;SDS011;271;51.114;13.780;2022-08-19T12:48:47;33.33;;;21.07;;
572;SDS011;271;51.114;13.780;2022-08-19T12:51:15;31.10;;;19.60;;
572;SDS011;271;51.114;13.780;2022-08-19T12:53:44;32.43;;;20.33;;
572;SDS011;271;51.114;13.780;2022-08-19T12:56:40;31.97;;;20.37;;
572;SDS011;271;51.114;13.780;2022-08-19T12:59:09;33.57;;;18.10;;
572;SDS011;271;51.114;13.780;2022-08-19T13:01:36;28.70;;;16.03;;
572;SDS011;271;51.114;13.780;2022-08-19T13:04:14;31.20;;;20.07;;
572;SDS011;271;51.114;13.780;2022-08-19T13:06:47;30.40;;;18.20;;
572;SDS011;271;51.114;13.780;2022-08-19T13:09:13;30.00;;;18.13;;
572;SDS011;271;51.114;13.780;2022-08-19T13:11:40;28.60;;;17.37;;
572;SDS011;271;51.114;13.780;2022-08-19T13:14:08;28.97;;;17.30;;
572;SDS011;271;51.114;13.780;2022-08-19T13:16:44;30.67;;;17.73;;
572;SDS011;271;51.114;13.780;2022-08-19T13:19:11;28.00;;;16.23;;
572;SDS011;271;51.114;13.780;2022-08-19T13:21:41;28.93;;;17.40;;
572;SDS011;271;51.114;13.780;2022-08-19T13:24:08;28.60;;;16.87;;
572;SDS011;271;51.114;13.780;2022-08-19T13:26:41;32.10;;;18.10;;
572;SDS011;271;51.114;13.780;2022-08-19T13:29:08;29.77;;;17.93;;
572;SDS011;271;51.114;13.780;2022-08-19T13:31:52;30.83;;;18.33;;
572;SDS011;271;51.114;13.780;2022-08-19T13:34:36;28.57;;;16.70;;
572;SDS011;271;51.114;13.780;2022-08-19T13:37:08;30.67;;;16.87;;
572;SDS011;271;51.114;13.780;2022-08-19T13:39:35;28.50;;;16.17;;
572;SDS011;271;51.114;13.780;2022-08-19T13:42:01;31.93;;;16.30;;
572;SDS011;271;51.114;13.780;2022-08-19T13:44:29;28.23;;;16.30;;
572;SDS011;271;51.114;13.780;2022-08-19T13:47:08;29.33;;;17.87;;
572;SDS011;271;51.114;13.780;2022-08-19T13:49:39;27.60;;;16.13;;
572;SDS011;271;51.114;13.780;2022-08-19T13:52:07;30.77;;;16.97;;
572;SDS011;271;51.114;13.780;2022-08-19T13:54:38;32.03;;;19.67;;
572;SDS011;271;51.114;13.780;2022-08-19T13:57:04;30.03;;;19.40;;
572;SDS011;271;51.114;13.780;2022-08-19T13:59:32;32.43;;;19.90;;
572;SDS011;271;51.114;13.780;2022-08-19T14:01:59;31.90;;;18.80;;
572;SDS011;271;51.114;13.780;2022-08-19T14:04:26;34.97;;;23.70;;
572;SDS011;271;51.114;13.780;2022-08-19T14:06:53;32.37;;;19.93;;
572;SDS011;271;51.114;13.780;2022-08-19T14:09:22;32.10;;;20.17;;
572;SDS011;271;51.114;13.780;2022-08-19T14:11:56;33.40;;;21.73;;
572;SDS011;271;51.114;13.780;2022-08-19T14:14:23;31.53;;;19.63;;
572;SDS011;271;51.114;13.780;2022-08-19T14:16:49;33.30;;;22.07;;
572;SDS011;271;51.114;13.780;2022-08-19T14:19:17;33.60;;;21.07;;
572;SDS011;271;51.114;13.780;2022-08-19T14:21:44;33.77;;;23.30;;
572;SDS011;271;51.114;13.780;2022-08-19T14:24:16;34.77;;;22.90;;
572;SDS011;271;51.114;13.780;2022-08-19T14:26:44;34.70;;;23.40;;
572;SDS011;271;51.114;13.780;2022-08-19T14:29:11;35.97;;;22.90;;
572;SDS011;271;51.114;13.780;2022-08-19T14:31:37;36.67;;;24.20;;
572;SDS011;271;51.114;13.780;2022-08-19T14:34:06;36.43;;;24.23;;
572;SDS011;271;51.114;13.780;2022-08-19T14:36:34;37.63;;;24.00;;
572;SDS011;271;51.114;13.780;2022-08-19T14:39:01;35.10;;;22.30;;
572;SDS011;271;51.114;13.780;2022-08-19T14:41:29;34.80;;;21.40;;
572;SDS011;271;51.114;13.780;2022-08-19T14:43:57;33.50;;;23.00;;
572;SDS011;271;51.114;13.780;2022-08-19T14:46:24;37.20;;;25.53;;
572;SDS011;271;51.114;13.780;2022-08-19T14:49:06;39.47;;;24.70;;
572;SDS011;271;51.114;13.780;2022-08-19T14:51:33;37.57;;;25.13;;
572;SDS011;271;51.114;13.780;2022-08-19T14:54:00;36.47;;;24.03;;
572;SDS011;271;51.114;13.780;2022-08-19T14:56:27;36.50;;;22.07;;
572;SDS011;271;51.114;13.780;2022-08-19T14:59:04;34.70;;;22.70;;
572;SDS011;271;51.114;13.780;2022-08-19T15:01:33;33.33;;;23.10;;
572;SDS011;271;51.114;13.780;2022-08-19T15:04:00;34.60;;;22.13;;
572;SDS011;271;51.114;13.780;2022-08-19T15:06:27;31.47;;;21.47;;
572;SDS011;271;51.114;13.780;2022-08-19T15:08:54;32.50;;;20.40;;
572;SDS011;271;51.114;13.780;2022-08-19T15:11:24;30.30;;;19.30;;
572;SDS011;271;51.114;13.780;2022-08-19T15:13:53;31.70;;;19.80;;